Time;durP1;ratioP1;P1;durP2;ratioP2;P2;SDS_P1;SDS_P2;PMS_P1;PMS_P2;Temp;Humidity;BMP_temperature;BMP_pressure;BME280_temperature;BME280_humidity;BME280_pressure;Samples;Min_cycle;Max_cycle;Signal;HPM_P1;HPM_P2
2021/05/28 00:00:42;;;;;;;7.28;2.50;;;;;;;11.20;100.00;101340.25;5016642;28;20091;-73
2021/05/28 00:03:07;;;;;;;5.43;2.55;;;;;;;11.11;100.00;101347.69;5036772;28;20029;-73
2021/05/28 00:05:33;;;;;;;3.97;2.15;;;;;;;11.01;100.00;101338.19;5033413;28;20408;-73
2021/05/28 00:07:58;;;;;;;3.95;2.47;;;;;;;11.06;100.00;101345.22;5035284;28;20084;-73
2021/05/28 00:10:24;;;;;;;2.58;2.20;;;;;;;10.99;100.00;101347.72;5028916;28;20029;-74
2021/05/28 00:12:51;;;;;;;4.25;2.30;;;;;;;10.97;100.00;101355.34;5038168;28;20045;-74
2021/05/28 00:15:16;;;;;;;2.80;1.95;;;;;;;10.92;100.00;101364.44;5036968;28;20079;-73
2021/05/28 00:17:42;;;;;;;2.05;1.85;;;;;;;10.86;100.00;101358.50;5034222;28;20042;-73
2021/05/28 00:20:11;;;;;;;2.30;1.90;;;;;;;10.89;100.00;101370.53;5025194;28;20044;-73
2021/05/28 00:22:37;;;;;;;2.78;1.80;;;;;;;10.89;100.00;101365.94;5047352;28;20382;-73
2021/05/28 00:25:03;;;;;;;4.40;2.08;;;;;;;10.94;100.00;101362.22;5046924;28;20090;-73
2021/05/28 00:27:32;;;;;;;5.25;2.20;;;;;;;10.92;100.00;101366.38;5050601;28;20060;-73
2021/05/28 00:30:01;;;;;;;4.13;2.10;;;;;;;11.08;100.00;101373.41;5048060;28;20044;-73
2021/05/28 00:32:27;;;;;;;5.10;2.28;;;;;;;10.99;100.00;101372.78;5027751;28;20044;-73
2021/05/28 00:34:52;;;;;;;4.93;2.20;;;;;;;11.10;100.00;101365.00;5044830;28;20449;-73
2021/05/28 00:37:18;;;;;;;6.22;3.60;;;;;;;11.20;100.00;101375.31;5037365;28;20075;-73
2021/05/28 00:39:44;;;;;;;4.72;2.70;;;;;;;11.30;100.00;101377.53;5046880;28;20024;-73
2021/05/28 00:42:10;;;;;;;4.25;2.50;;;;;;;11.39;100.00;101376.25;5044314;28;20036;-73
2021/05/28 00:44:38;;;;;;;4.30;2.95;;;;;;;11.39;100.00;101378.16;5040042;28;20108;-73
2021/05/28 00:47:05;;;;;;;5.97;3.30;;;;;;;11.44;100.00;101381.41;5019933;28;20032;-73
2021/05/28 00:49:30;;;;;;;5.80;3.28;;;;;;;11.52;100.00;101377.78;5046716;28;20039;-73
2021/05/28 00:51:56;;;;;;;7.45;3.70;;;;;;;11.60;100.00;101379.56;5041079;28;20029;-73
2021/05/28 00:54:21;;;;;;;5.18;3.08;;;;;;;11.64;100.00;101382.34;5040423;28;20033;-74
2021/05/28 00:56:48;;;;;;;10.85;3.80;;;;;;;11.59;100.00;101380.66;5042060;28;20099;-73
2021/05/28 00:59:15;;;;;;;5.57;3.83;;;;;;;11.69;100.00;101379.47;5040478;28;20044;-73
2021/05/28 01:01:41;;;;;;;5.22;3.55;;;;;;;11.65;100.00;101389.34;5039783;28;20022;-73
2021/05/28 01:04:06;;;;;;;6.13;3.72;;;;;;;11.55;100.00;101387.91;5040373;28;20036;-73
2021/05/28 01:06:32;;;;;;;6.10;3.60;;;;;;;11.62;100.00;101400.78;5039367;28;20485;-73
2021/05/28 01:08:58;;;;;;;6.85;3.78;;;;;;;11.52;100.00;101401.28;5040151;28;20466;-73
2021/05/28 01:11:23;;;;;;;6.43;4.28;;;;;;;11.51;100.00;101391.63;5038828;28;20029;-73
2021/05/28 01:13:49;;;;;;;9.40;3.75;;;;;;;11.56;100.00;101404.84;5040095;28;20053;-73
2021/05/28 01:16:16;;;;;;;6.85;3.88;;;;;;;11.56;100.00;101397.56;5043373;28;20037;-73
2021/05/28 01:18:41;;;;;;;5.65;4.30;;;;;;;11.45;100.00;101404.56;5040766;28;20036;-73
2021/05/28 01:21:08;;;;;;;12.13;4.50;;;;;;;11.48;100.00;101403.88;5034949;28;20378;-73
2021/05/28 01:23:36;;;;;;;10.73;4.57;;;;;;;11.47;100.00;101404.22;5042276;28;20114;-73
2021/05/28 01:26:02;;;;;;;7.55;4.40;;;;;;;11.43;100.00;101400.63;5048241;28;20025;-73
2021/05/28 01:28:27;;;;;;;11.27;4.82;;;;;;;11.43;100.00;101398.72;5047392;28;20037;-73
2021/05/28 01:30:53;;;;;;;9.70;4.90;;;;;;;11.32;100.00;101402.25;5044827;28;20033;-73
2021/05/28 01:33:18;;;;;;;11.35;4.30;;;;;;;11.22;100.00;101400.00;5052481;28;20044;-73
2021/05/28 01:35:44;;;;;;;9.07;5.15;;;;;;;11.25;100.00;101412.81;5047055;28;20051;-73
2021/05/28 01:38:09;;;;;;;9.50;4.97;;;;;;;11.25;100.00;101415.50;5038701;28;20061;-73
2021/05/28 01:40:35;;;;;;;12.43;5.15;;;;;;;11.34;100.00;101425.03;5039836;28;20067;-73
2021/05/28 01:43:01;;;;;;;11.52;5.38;;;;;;;11.35;100.00;101425.81;5037009;28;20075;-73
2021/05/28 01:45:26;;;;;;;13.15;5.68;;;;;;;11.40;100.00;101423.66;5039689;28;20041;-73
2021/05/28 01:47:51;;;;;;;12.77;6.00;;;;;;;11.47;100.00;101431.97;5038835;28;20057;-73
2021/05/28 01:50:18;;;;;;;12.32;5.65;;;;;;;11.42;100.00;101434.13;5036032;28;20076;-74
2021/05/28 01:52:45;;;;;;;16.20;6.35;;;;;;;11.40;100.00;101431.75;5048198;28;20103;-73
2021/05/28 01:55:13;;;;;;;16.10;6.00;;;;;;;11.32;100.00;101434.59;5047721;28;20043;-73
2021/05/28 01:57:39;;;;;;;19.58;6.57;;;;;;;11.24;100.00;101435.50;5051040;28;20068;-73
2021/05/28 02:00:08;;;;;;;15.05;6.97;;;;;;;11.26;100.00;101439.44;5040167;28;20068;-73
2021/05/28 02:02:33;;;;;;;16.13;6.68;;;;;;;11.34;100.00;101438.50;5035082;28;20037;-73
2021/05/28 02:04:58;;;;;;;13.60;7.05;;;;;;;11.32;100.00;101434.59;5037857;28;20397;-73
2021/05/28 02:07:24;;;;;;;13.68;6.80;;;;;;;11.29;100.00;101437.97;5041240;28;20512;-73
2021/05/28 02:09:49;;;;;;;14.18;6.75;;;;;;;11.06;100.00;101440.34;5033652;28;20039;-73
2021/05/28 02:12:15;;;;;;;16.63;7.47;;;;;;;11.09;100.00;101447.75;5044698;28;20037;-73
2021/05/28 02:14:41;;;;;;;16.30;6.95;;;;;;;10.92;100.00;101437.22;5044273;28;20104;-73
2021/05/28 02:17:09;;;;;;;11.02;6.88;;;;;;;10.97;100.00;101444.28;5040639;28;20026;-73
2021/05/28 02:19:35;;;;;;;11.98;6.30;;;;;;;10.93;100.00;101444.19;5026242;28;20079;-73
2021/05/28 02:22:00;;;;;;;18.45;6.53;;;;;;;11.03;100.00;101459.13;5046429;28;20108;-73
2021/05/28 02:24:26;;;;;;;11.85;6.88;;;;;;;11.02;100.00;101447.53;5035184;28;20040;-73
2021/05/28 02:26:55;;;;;;;13.68;6.40;;;;;;;10.92;100.00;101458.00;5039052;28;20025;-73
2021/05/28 02:29:21;;;;;;;16.25;6.45;;;;;;;10.89;100.00;101460.25;5050072;28;20033;-73
2021/05/28 02:31:46;;;;;;;16.08;6.95;;;;;;;10.95;100.00;101468.09;5043386;28;20390;-73
2021/05/28 02:34:12;;;;;;;15.75;6.53;;;;;;;10.73;100.00;101463.94;5038540;28;20171;-73
2021/05/28 02:36:37;;;;;;;11.27;6.55;;;;;;;10.73;100.00;101462.03;5049963;28;20044;-72
2021/05/28 02:39:05;;;;;;;16.90;6.75;;;;;;;10.79;100.00;101460.69;5039315;28;20033;-73
2021/05/28 02:41:31;;;;;;;15.43;6.05;;;;;;;10.73;100.00;101467.41;5052456;28;20102;-73
2021/05/28 02:43:56;;;;;;;11.00;6.35;;;;;;;10.93;100.00;101478.44;5048620;28;20489;-73
2021/05/28 02:46:22;;;;;;;16.48;6.75;;;;;;;10.78;100.00;101472.56;5044254;28;20045;-72
2021/05/28 02:48:47;;;;;;;13.25;6.03;;;;;;;10.66;100.00;101482.56;5041367;28;20036;-73
2021/05/28 02:51:13;;;;;;;12.13;6.22;;;;;;;10.67;100.00;101489.50;5033913;28;20033;-72
2021/05/28 02:53:38;;;;;;;13.63;6.70;;;;;;;10.64;100.00;101488.28;5049516;28;20572;-73
2021/05/28 02:56:05;;;;;;;12.98;6.43;;;;;;;10.61;100.00;101486.25;5044641;28;20201;-72
2021/05/28 02:58:31;;;;;;;12.77;6.28;;;;;;;10.55;100.00;101489.50;5044828;28;20053;-72
2021/05/28 03:00:57;;;;;;;9.25;5.75;;;;;;;10.58;100.00;101486.13;5035898;28;20017;-72
2021/05/28 03:03:23;;;;;;;10.25;6.03;;;;;;;10.63;100.00;101492.09;5045064;28;20504;-73
2021/05/28 03:05:51;;;;;;;25.17;6.53;;;;;;;10.51;100.00;101497.44;5018339;28;20025;-72
2021/05/28 03:08:18;;;;;;;9.63;5.88;;;;;;;10.56;100.00;101499.94;5032497;28;20037;-72
2021/05/28 03:10:43;;;;;;;9.18;5.70;;;;;;;10.48;100.00;101506.19;5019187;28;20521;-73
2021/05/28 03:13:09;;;;;;;14.75;6.38;;;;;;;10.63;100.00;101504.75;5032704;28;20049;-73
2021/05/28 03:15:35;;;;;;;10.85;5.95;;;;;;;10.49;100.00;101510.44;5032000;28;20037;-73
2021/05/28 03:18:02;;;;;;;14.13;5.88;;;;;;;10.51;100.00;101520.91;5033134;28;20033;-73
2021/05/28 03:20:35;;;;;;;13.60;5.43;;;;;;;10.46;100.00;101515.72;5038944;28;20033;-73
2021/05/28 03:23:01;;;;;;;10.73;6.18;;;;;;;10.55;100.00;101525.28;5038695;28;20056;-73
2021/05/28 03:25:26;;;;;;;11.02;5.93;;;;;;;10.68;100.00;101524.19;5022191;28;20091;-73
2021/05/28 03:27:53;;;;;;;11.15;5.82;;;;;;;10.63;100.00;101529.00;5041892;28;20025;-73
2021/05/28 03:30:20;;;;;;;11.18;5.68;;;;;;;10.56;100.00;101529.56;5030507;28;20571;-72
2021/05/28 03:32:46;;;;;;;10.48;5.68;;;;;;;10.43;100.00;101527.94;5044894;28;20037;-73
2021/05/28 03:35:12;;;;;;;14.57;6.28;;;;;;;10.44;100.00;101534.91;5049112;28;20047;-72
2021/05/28 03:37:39;;;;;;;12.77;5.97;;;;;;;10.35;100.00;101534.22;5039220;28;20036;-73
2021/05/28 03:40:07;;;;;;;12.95;6.28;;;;;;;10.39;100.00;101531.63;5041930;28;20041;-73
2021/05/28 03:42:32;;;;;;;12.98;6.00;;;;;;;10.52;100.00;101531.34;5062309;22;20136;-74
2021/05/28 03:44:58;;;;;;;11.73;6.10;;;;;;;10.61;100.00;101544.69;5060820;28;20115;-74
2021/05/28 03:47:23;;;;;;;13.95;6.18;;;;;;;10.47;100.00;101536.16;5060584;28;20042;-74
2021/05/28 03:49:49;;;;;;;11.60;6.88;;;;;;;10.51;100.00;101545.91;5062482;28;20117;-74
2021/05/28 03:52:14;;;;;;;12.05;6.13;;;;;;;10.45;100.00;101541.84;5050546;28;20063;-74
2021/05/28 03:54:40;;;;;;;12.77;6.20;;;;;;;10.37;100.00;101537.34;5022617;28;20029;-74
2021/05/28 03:57:06;;;;;;;12.77;5.90;;;;;;;10.44;100.00;101534.91;5027445;28;20047;-73
2021/05/28 03:59:33;;;;;;;15.80;6.57;;;;;;;10.47;100.00;101536.91;5044775;28;20036;-74
2021/05/28 04:01:59;;;;;;;10.23;5.43;;;;;;;10.61;100.00;101534.72;5043751;28;20025;-74
2021/05/28 04:04:24;;;;;;;12.60;5.78;;;;;;;10.73;100.00;101539.34;5052895;28;20160;-74
2021/05/28 04:06:49;;;;;;;11.00;5.63;;;;;;;10.87;100.00;101537.94;5048972;28;20488;-74
2021/05/28 04:09:15;;;;;;;14.40;5.63;;;;;;;10.89;100.00;101535.69;5048526;28;20174;-74
2021/05/28 04:11:41;;;;;;;11.15;5.68;;;;;;;11.05;100.00;101538.53;5043391;28;20028;-74
2021/05/28 04:14:06;;;;;;;11.23;5.78;;;;;;;10.99;100.00;101539.88;5049751;28;20067;-74
2021/05/28 04:16:32;;;;;;;9.63;5.15;;;;;;;11.05;100.00;101535.84;5050142;28;20041;-74
2021/05/28 04:18:57;;;;;;;8.48;5.25;;;;;;;11.05;100.00;101546.63;5029769;28;20041;-73
2021/05/28 04:21:23;;;;;;;13.32;5.10;;;;;;;11.07;100.00;101549.72;5037971;28;20036;-74
2021/05/28 04:23:48;;;;;;;11.35;5.07;;;;;;;11.26;100.00;101546.50;5045365;28;20117;-74
2021/05/28 04:26:14;;;;;;;13.05;5.43;;;;;;;11.32;100.00;101547.84;5042977;28;20401;-74
2021/05/28 04:28:39;;;;;;;8.98;5.25;;;;;;;11.14;100.00;101549.97;5037436;28;20093;-74
2021/05/28 04:31:05;;;;;;;7.18;4.88;;;;;;;11.05;100.00;101548.50;5048622;28;20246;-74
2021/05/28 04:33:30;;;;;;;9.32;4.90;;;;;;;11.03;100.00;101554.25;5031463;28;20032;-74
2021/05/28 04:35:56;;;;;;;13.13;4.65;;;;;;;11.08;100.00;101542.44;5044608;28;20112;-74
2021/05/28 04:38:22;;;;;;;8.95;5.18;;;;;;;11.17;100.00;101541.22;5038841;28;20135;-74
2021/05/28 04:40:50;;;;;;;7.60;4.65;;;;;;;11.10;100.00;101546.38;5043497;28;20056;-74
2021/05/28 04:43:16;;;;;;;15.38;4.72;;;;;;;11.20;100.00;101545.94;5002103;28;1082929;-74
2021/05/28 04:45:41;;;;;;;9.07;4.70;;;;;;;11.33;100.00;101547.50;5046947;28;20033;-74
2021/05/28 04:48:07;;;;;;;8.55;4.47;;;;;;;11.46;100.00;101545.59;5039852;28;20040;-74
2021/05/28 04:50:33;;;;;;;12.55;4.72;;;;;;;11.48;100.00;101543.34;5048671;28;20037;-74
2021/05/28 04:52:59;;;;;;;8.20;4.80;;;;;;;11.45;100.00;101552.91;5052135;28;20037;-75
2021/05/28 04:55:26;;;;;;;13.13;4.65;;;;;;;11.35;100.00;101552.56;5051688;28;20024;-74
2021/05/28 04:57:52;;;;;;;11.18;3.97;;;;;;;11.35;100.00;101552.56;5041473;28;20106;-74
2021/05/28 05:00:18;;;;;;;6.82;4.32;;;;;;;11.24;100.00;101556.84;5040024;28;20079;-74
2021/05/28 05:02:44;;;;;;;8.50;4.57;;;;;;;11.35;100.00;101549.88;5044092;28;20033;-74
2021/05/28 05:05:10;;;;;;;6.68;4.00;;;;;;;11.36;100.00;101559.53;5041247;28;20509;-74
2021/05/28 05:07:35;;;;;;;9.90;5.25;;;;;;;11.37;100.00;101561.91;5040154;28;20084;-74
2021/05/28 05:10:01;;;;;;;9.73;4.63;;;;;;;11.58;100.00;101554.47;5023604;28;20029;-74
2021/05/28 05:12:26;;;;;;;11.05;4.93;;;;;;;11.91;100.00;101556.22;5043681;28;20033;-74
2021/05/28 05:14:52;;;;;;;7.53;4.53;;;;;;;12.42;100.00;101558.09;5042197;28;20033;-74
2021/05/28 05:17:17;;;;;;;8.48;4.72;;;;;;;12.88;100.00;101557.41;5040226;28;20040;-75
2021/05/28 05:19:43;;;;;;;7.05;4.13;;;;;;;13.38;100.00;101557.50;5041638;28;20041;-75
2021/05/28 05:22:08;;;;;;;7.68;3.60;;;;;;;13.87;98.79;101562.47;5040030;28;20025;-75
2021/05/28 05:24:34;;;;;;;9.23;3.67;;;;;;;14.31;95.24;101556.47;5031977;28;20156;-74
2021/05/28 05:26:59;;;;;;;8.70;4.13;;;;;;;14.82;91.63;101567.91;5035328;28;20033;-74
2021/05/28 05:29:25;;;;;;;5.43;3.10;;;;;;;14.89;92.27;101568.00;5039848;28;20052;-74
2021/05/28 05:31:50;;;;;;;7.03;3.65;;;;;;;15.16;90.16;101569.66;5040778;28;20041;-73
2021/05/28 05:34:16;;;;;;;7.30;3.30;;;;;;;15.44;89.65;101566.63;5042469;28;20488;-73
2021/05/28 05:36:41;;;;;;;9.00;3.55;;;;;;;15.65;87.87;101560.72;5024392;28;20040;-75
2021/05/28 05:39:07;;;;;;;7.32;3.20;;;;;;;15.63;89.00;101571.16;5037040;28;20102;-74
2021/05/28 05:41:33;;;;;;;4.82;3.20;;;;;;;15.87;89.73;101568.78;5048795;28;20025;-74
2021/05/28 05:43:58;;;;;;;5.70;3.58;;;;;;;15.93;88.84;101572.75;5049523;28;20107;-75
2021/05/28 05:46:24;;;;;;;9.20;3.30;;;;;;;16.43;88.17;101581.53;5041658;28;20051;-75
2021/05/28 05:48:49;;;;;;;6.53;3.90;;;;;;;16.62;84.50;101578.69;5043591;28;20063;-75
2021/05/28 05:51:15;;;;;;;9.80;4.25;;;;;;;16.47;85.33;101583.16;5047661;28;20027;-74
2021/05/28 05:53:40;;;;;;;10.90;3.55;;;;;;;16.19;86.07;101588.25;5047777;28;20036;-74
2021/05/28 05:56:05;;;;;;;10.82;3.97;;;;;;;15.91;87.96;101585.94;5047342;28;20046;-75
2021/05/28 05:58:31;;;;;;;13.68;4.93;;;;;;;15.85;87.77;101598.25;5038806;28;20037;-75
2021/05/28 06:00:56;;;;;;;9.68;5.70;;;;;;;15.68;87.64;101600.75;5040053;28;20035;-75
2021/05/28 06:03:22;;;;;;;10.65;5.85;;;;;;;15.16;89.58;101609.56;5049018;28;20033;-74
2021/05/28 06:05:48;;;;;;;12.35;6.40;;;;;;;15.15;90.26;101600.66;5047315;28;20033;-75
2021/05/28 06:08:13;;;;;;;11.95;7.25;;;;;;;15.03;91.14;101594.59;5041064;28;20405;-75
2021/05/28 06:10:38;;;;;;;10.32;7.03;;;;;;;14.76;92.75;101593.75;5049275;28;20051;-75
2021/05/28 06:13:06;;;;;;;15.90;7.22;;;;;;;14.68;93.26;101605.59;5038314;28;20370;-74
2021/05/28 06:15:32;;;;;;;13.52;6.82;;;;;;;14.69;92.11;101600.97;5041456;28;20037;-75
2021/05/28 06:17:57;;;;;;;11.90;6.72;;;;;;;14.77;93.64;101608.84;5044164;28;20033;-75
2021/05/28 06:20:23;;;;;;;12.88;6.75;;;;;;;15.11;93.04;101607.94;5040149;28;20021;-75
2021/05/28 06:22:48;;;;;;;9.77;6.50;;;;;;;15.47;91.68;101614.75;5039917;28;20509;-73
2021/05/28 06:25:14;;;;;;;9.25;6.55;;;;;;;15.48;91.91;101613.63;5037525;28;20036;-75
2021/05/28 06:27:40;;;;;;;11.95;5.88;;;;;;;15.49;92.46;101608.97;5030640;28;20037;-74
2021/05/28 06:30:07;;;;;;;11.20;6.53;;;;;;;15.41;90.16;101616.19;5037078;28;20041;-75
2021/05/28 06:32:32;;;;;;;9.10;5.68;;;;;;;15.08;91.55;101621.44;5042213;28;20029;-75
2021/05/28 06:34:58;;;;;;;9.18;6.20;;;;;;;14.99;91.31;101623.59;5050802;28;20516;-74
2021/05/28 06:37:23;;;;;;;10.65;6.53;;;;;;;14.77;92.41;101619.72;5048366;28;20040;-75
2021/05/28 06:39:49;;;;;;;9.00;6.13;;;;;;;14.84;93.15;101629.91;5040328;28;20021;-75
2021/05/28 06:42:14;;;;;;;9.25;5.78;;;;;;;14.69;92.01;101619.94;5051995;28;20053;-74
2021/05/28 06:44:39;;;;;;;8.23;6.07;;;;;;;14.78;91.85;101634.06;5052186;28;20055;-75
2021/05/28 06:47:05;;;;;;;7.78;5.75;;;;;;;14.60;91.16;101630.19;5046869;28;20059;-75
2021/05/28 06:49:30;;;;;;;8.45;5.28;;;;;;;14.55;91.15;101630.50;5049308;28;20040;-75
2021/05/28 06:51:56;;;;;;;8.68;5.45;;;;;;;14.67;91.54;101628.44;5052243;28;20037;-75
2021/05/28 06:54:21;;;;;;;10.35;5.18;;;;;;;14.79;90.36;101632.94;5046769;28;20027;-75
2021/05/28 06:56:47;;;;;;;7.85;4.95;;;;;;;14.69;91.08;101633.50;5051062;28;20385;-75
2021/05/28 06:59:33;;;;;;;7.18;4.65;;;;;;;14.92;89.28;101645.19;5047044;28;20150;-75
2021/05/28 07:01:58;;;;;;;6.88;4.78;;;;;;;15.13;86.95;101637.44;4970338;28;20062;-74
2021/05/28 07:04:24;;;;;;;7.20;4.45;;;;;;;15.16;86.76;101647.53;4971118;28;20415;-74
2021/05/28 07:06:50;;;;;;;9.07;4.88;;;;;;;15.24;86.85;101643.81;4970660;28;20047;-74
2021/05/28 07:09:15;;;;;;;8.07;4.13;;;;;;;15.19;85.42;101644.13;4968122;28;20054;-75
2021/05/28 07:11:41;;;;;;;7.47;4.53;;;;;;;14.57;88.81;101644.50;4969660;28;20045;-75
2021/05/28 07:14:06;;;;;;;7.03;4.47;;;;;;;14.57;90.23;101647.19;4976425;28;20043;-75
2021/05/28 07:16:32;;;;;;;9.38;4.65;;;;;;;14.80;89.88;101658.88;4969756;28;20046;-74
2021/05/28 07:18:58;;;;;;;6.00;4.20;;;;;;;15.00;87.76;101657.75;4966243;28;20042;-75
2021/05/28 07:21:24;;;;;;;6.88;4.18;;;;;;;14.92;88.12;101662.25;4953605;28;20038;-75
2021/05/28 07:23:50;;;;;;;6.78;3.92;;;;;;;14.73;89.92;101664.94;4969172;28;20070;-75
2021/05/28 07:26:15;;;;;;;8.45;4.40;;;;;;;15.01;87.27;101659.28;4951563;28;20099;-75
2021/05/28 07:28:41;;;;;;;8.57;3.88;;;;;;;14.93;87.15;101665.72;4969717;28;20569;-74
2021/05/28 07:31:06;;;;;;;6.68;4.22;;;;;;;14.73;88.17;101670.38;4969158;28;20059;-75
2021/05/28 07:33:33;;;;;;;7.57;3.97;;;;;;;14.56;88.64;101659.16;4968256;28;20142;-74
2021/05/28 07:35:59;;;;;;;10.93;4.40;;;;;;;14.75;88.15;101670.03;4969955;28;20046;-74
2021/05/28 07:38:24;;;;;;;8.70;4.20;;;;;;;14.69;88.77;101666.03;4984799;28;20045;-74
2021/05/28 07:40:50;;;;;;;8.73;4.30;;;;;;;14.76;89.13;101666.97;5043413;28;20056;-74
2021/05/28 07:43:15;;;;;;;11.23;4.82;;;;;;;14.67;89.67;101673.75;5045425;28;20037;-74
2021/05/28 07:45:41;;;;;;;14.38;5.00;;;;;;;14.53;90.21;101676.16;5046511;28;20025;-74
2021/05/28 07:48:07;;;;;;;11.48;5.40;;;;;;;14.28;91.72;101676.44;5046422;28;20039;-74
2021/05/28 07:50:45;;;;;;;14.35;5.30;;;;;;;14.19;93.04;101689.34;5044763;28;20396;-74
2021/05/28 07:53:12;;;;;;;12.48;6.10;;;;;;;14.35;92.20;101692.84;5051042;28;20040;-74
2021/05/28 07:55:38;;;;;;;10.60;5.85;;;;;;;14.15;92.51;101693.13;5049329;28;20079;-74
2021/05/28 07:58:03;;;;;;;15.15;6.70;;;;;;;14.19;92.13;101694.75;5049961;28;20029;-74
2021/05/28 08:00:29;;;;;;;12.73;6.68;;;;;;;14.09;92.69;101703.44;5048195;28;23215;-73
2021/05/28 08:02:54;;;;;;;14.93;6.45;;;;;;;13.97;93.36;101686.50;5044263;28;20389;-74
2021/05/28 08:05:20;;;;;;;15.45;6.93;;;;;;;14.09;93.25;101684.47;5044724;28;20401;-74
2021/05/28 08:07:45;;;;;;;15.95;8.30;;;;;;;14.32;92.49;101679.22;5050990;28;20036;-74
2021/05/28 08:10:13;;;;;;;18.23;7.60;;;;;;;14.34;91.68;101682.34;5043443;28;20045;-74
2021/05/28 08:12:39;;;;;;;18.73;7.35;;;;;;;14.54;90.96;101683.16;5049596;28;20504;-74
2021/05/28 08:15:05;;;;;;;13.88;7.30;;;;;;;14.67;90.67;101688.09;5047316;28;20020;-74
2021/05/28 08:17:30;;;;;;;14.27;6.95;;;;;;;14.67;90.63;101690.00;5042743;28;20040;-74
2021/05/28 08:19:57;;;;;;;13.38;6.47;;;;;;;14.71;91.15;101691.63;5044044;28;20409;-74
2021/05/28 08:22:22;;;;;;;15.90;7.45;;;;;;;14.73;91.47;101692.06;5043878;28;20110;-74
2021/05/28 08:24:48;;;;;;;13.93;6.55;;;;;;;14.82;89.28;101692.66;5031383;28;20481;-74
2021/05/28 08:27:13;;;;;;;13.02;6.18;;;;;;;14.99;87.72;101683.28;5045010;28;20072;-74
2021/05/28 08:29:39;;;;;;;12.43;6.32;;;;;;;15.37;86.99;101685.91;5047984;28;20051;-74
2021/05/28 08:32:04;;;;;;;12.77;5.95;;;;;;;15.73;84.66;101690.06;5047980;28;20032;-74
2021/05/28 08:34:30;;;;;;;13.35;5.75;;;;;;;15.86;84.65;101691.41;5044246;28;20025;-74
2021/05/28 08:36:55;;;;;;;9.13;5.05;;;;;;;15.77;84.52;101694.41;5050285;28;20044;-74
2021/05/28 08:39:21;;;;;;;11.00;5.70;;;;;;;15.96;82.52;101696.25;5040705;28;20074;-74
2021/05/28 08:41:47;;;;;;;15.77;5.70;;;;;;;15.84;82.89;101702.66;5025406;28;20033;-74
2021/05/28 08:44:18;;;;;;;12.63;5.88;;;;;;;15.71;82.64;101698.56;5046904;28;20082;-74
2021/05/28 08:46:43;;;;;;;12.10;5.22;;;;;;;15.67;83.78;101697.72;5045223;28;20119;-74
2021/05/28 08:49:10;;;;;;;11.63;5.63;;;;;;;15.50;84.73;101695.50;5048138;28;20533;-74
2021/05/28 08:51:35;;;;;;;10.50;5.70;;;;;;;15.57;85.39;101694.81;5032081;28;20065;-73
2021/05/28 08:54:01;;;;;;;12.88;6.22;;;;;;;15.61;85.76;101698.38;5049584;28;20025;-74
2021/05/28 08:56:27;;;;;;;16.65;5.95;;;;;;;15.63;85.70;101698.81;5046461;28;20175;-74
2021/05/28 08:58:52;;;;;;;13.07;5.97;;;;;;;15.69;86.40;101708.22;5049149;28;20036;-74
2021/05/28 09:01:17;;;;;;;9.07;5.10;;;;;;;16.01;85.67;101702.13;5026439;28;20041;-74
2021/05/28 09:03:43;;;;;;;10.73;5.47;;;;;;;16.38;84.14;101706.94;5034793;28;20032;-74
2021/05/28 09:06:18;;;;;;;11.98;5.70;;;;;;;16.48;82.47;101695.41;5036061;28;20084;-74
2021/05/28 09:08:44;;;;;;;10.98;5.80;;;;;;;16.57;81.34;101702.19;5048771;28;20037;-74
2021/05/28 09:11:16;;;;;;;11.18;5.50;;;;;;;16.46;82.15;101705.88;5044896;28;20044;-74
2021/05/28 09:13:46;;;;;;;11.45;6.53;;;;;;;16.45;81.48;101704.31;5049281;28;20037;-74
2021/05/28 09:16:19;;;;;;;10.70;5.97;;;;;;;16.40;82.36;101702.69;5049193;28;20059;-74
2021/05/28 09:18:52;;;;;;;13.23;6.13;;;;;;;16.52;80.29;101699.00;5045052;28;20032;-74
2021/05/28 09:21:31;;;;;;;10.90;5.63;;;;;;;16.63;78.45;101699.91;5047773;28;20041;-74
2021/05/28 09:24:06;;;;;;;11.55;4.97;;;;;;;16.42;81.29;101710.50;5042940;28;20783;-74
2021/05/28 09:26:34;;;;;;;13.93;6.15;;;;;;;16.53;80.73;101719.63;5044186;28;20119;-74
2021/05/28 09:29:01;;;;;;;10.55;5.75;;;;;;;16.48;79.58;101714.47;5016619;28;20032;-74
2021/05/28 09:31:29;;;;;;;12.00;5.90;;;;;;;16.40;80.91;101707.34;5047413;28;20044;-74
2021/05/28 09:33:56;;;;;;;9.25;5.55;;;;;;;16.43;80.47;101714.78;5040238;28;20040;-73
2021/05/28 09:36:25;;;;;;;10.48;5.20;;;;;;;16.40;80.46;101712.78;5043016;28;20036;-74
2021/05/28 09:39:12;;;;;;;10.35;5.35;;;;;;;16.38;80.38;101717.81;5036506;28;20032;-74
2021/05/28 09:41:50;;;;;;;11.65;5.45;;;;;;;16.39;80.30;101716.66;5060139;22;20021;-73
2021/05/28 09:44:20;;;;;;;10.32;5.63;;;;;;;16.44;80.88;101710.91;5089994;28;20040;-73
2021/05/28 09:47:14;;;;;;;11.00;5.43;;;;;;;16.39;79.84;101720.19;5083736;28;20036;-72
2021/05/28 09:49:48;;;;;;;10.15;6.15;;;;;;;16.51;78.81;101719.22;5070913;28;20039;-73
2021/05/28 09:52:28;;;;;;;10.80;5.90;;;;;;;16.40;80.01;101712.78;5079852;28;20032;-73
2021/05/28 09:55:05;;;;;;;11.80;6.22;;;;;;;16.48;80.70;101709.00;5063362;28;20504;-73
2021/05/28 09:57:37;;;;;;;11.82;6.22;;;;;;;16.90;80.50;101704.13;5080340;28;20036;-73
2021/05/28 10:00:21;;;;;;;12.43;6.18;;;;;;;17.34;79.54;101709.69;5077205;28;20083;-73
2021/05/28 10:02:50;;;;;;;9.95;5.57;;;;;;;17.41;78.57;101702.34;5083301;28;20559;-73
2021/05/28 10:05:24;;;;;;;12.98;6.13;;;;;;;17.69;77.47;101705.34;5076296;28;20028;-74
2021/05/28 10:07:50;;;;;;;11.23;6.43;;;;;;;17.73;77.81;101702.69;5082039;28;20429;-73
2021/05/28 10:10:17;;;;;;;9.30;5.85;;;;;;;17.93;75.58;101704.78;5093533;28;20024;-73
2021/05/28 10:12:43;;;;;;;13.23;6.60;;;;;;;17.80;74.89;101711.69;5085199;28;20032;-73
2021/05/28 10:15:12;;;;;;;12.48;5.85;;;;;;;17.82;75.17;101708.56;5090360;28;20050;-73
2021/05/28 10:17:38;;;;;;;10.95;5.97;;;;;;;17.64;77.46;101708.44;5092306;28;20407;-73
2021/05/28 10:20:05;;;;;;;11.43;6.07;;;;;;;17.63;77.57;101711.53;5088485;28;20073;-72
2021/05/28 10:22:31;;;;;;;10.93;5.57;;;;;;;17.49;77.93;101709.47;5091596;28;20034;-73
2021/05/28 10:24:56;;;;;;;11.45;5.68;;;;;;;17.42;78.21;101706.63;5090334;28;20032;-73
2021/05/28 10:27:24;;;;;;;11.02;5.70;;;;;;;17.71;75.32;101699.53;5092774;28;20040;-73
2021/05/28 10:29:54;;;;;;;10.77;5.90;;;;;;;17.78;73.76;101705.81;5092233;28;20495;-72
2021/05/28 10:32:20;;;;;;;11.50;6.13;;;;;;;17.80;73.99;101700.00;5088227;28;20042;-73
2021/05/28 10:35:09;;;;;;;10.93;5.50;;;;;;;17.60;76.33;101704.09;5092319;28;20024;-74
2021/05/28 10:37:36;;;;;;;12.85;5.60;;;;;;;17.71;76.11;101697.56;5077536;28;20055;-73
2021/05/28 10:40:21;;;;;;;14.13;5.50;;;;;;;17.64;76.44;101700.25;5080926;28;20074;-73
2021/05/28 10:43:06;;;;;;;8.57;5.55;;;;;;;17.91;78.32;101688.00;5072721;28;20383;-73
2021/05/28 10:45:53;;;;;;;12.57;5.63;;;;;;;18.01;76.74;101687.31;5077891;28;20062;-72
2021/05/28 10:48:41;;;;;;;13.82;6.18;;;;;;;18.09;75.06;101677.22;5076810;28;20044;-73
2021/05/28 10:51:13;;;;;;;8.93;4.63;;;;;;;18.24;75.86;101683.53;5085346;28;20028;-73
2021/05/28 10:53:59;;;;;;;12.38;5.15;;;;;;;18.65;73.93;101690.41;5083662;28;20522;-73
2021/05/28 10:56:35;;;;;;;12.48;5.07;;;;;;;19.21;71.47;101676.13;5076704;28;20052;-73
2021/05/28 10:59:03;;;;;;;8.98;4.85;;;;;;;19.30;71.42;101671.84;5079613;28;20036;-73
2021/05/28 11:01:31;;;;;;;10.05;5.10;;;;;;;19.27;72.20;101666.38;5082621;28;20033;-73
2021/05/28 11:03:58;;;;;;;10.02;5.07;;;;;;;19.45;69.43;101676.16;5101138;28;20027;-73
2021/05/28 11:06:23;;;;;;;11.30;4.68;;;;;;;19.64;68.61;101669.56;5082139;28;20032;-73
2021/05/28 11:08:51;;;;;;;9.27;4.43;;;;;;;19.92;70.30;101664.03;5087359;28;20043;-73
2021/05/28 11:11:46;;;;;;;15.85;4.05;;;;;;;19.98;68.45;101659.75;5087975;28;20040;-73
2021/05/28 11:14:18;;;;;;;11.93;4.20;;;;;;;19.82;68.35;101662.13;5081024;28;20028;-73
2021/05/28 11:16:53;;;;;;;11.98;4.60;;;;;;;19.84;67.24;101684.38;5088975;28;20884;-73